createdAt,value
2018-03-25T10:20:22.881Z,35.87
2018-03-25T10:30:52.649Z,44.70
2018-03-25T10:35:53.622Z,37.33
2018-03-25T10:40:54.602Z,42.73
2018-03-25T10:45:55.613Z,39.23
2018-03-25T10:50:56.566Z,34.40
2018-03-25T10:55:57.548Z,35.70
2018-03-25T11:00:58.536Z,35.77
2018-03-25T11:05:59.877Z,36.67
2018-03-25T11:11:00.868Z,38.93
2018-03-25T11:16:01.817Z,36.03
2018-03-25T11:21:02.768Z,36.67
2018-03-25T11:26:03.992Z,38.33
2018-03-25T11:31:04.985Z,38.00
2018-03-25T11:47:11.028Z,36.13
2018-03-25T11:52:12.040Z,33.30
2018-03-25T11:57:13.032Z,43.30
2018-03-25T12:02:13.999Z,43.20
2018-03-25T12:07:15.002Z,43.60
2018-03-25T12:12:15.983Z,37.57
2018-03-25T12:22:51.430Z,36.27
2018-03-25T12:27:52.446Z,36.00
2018-03-25T12:32:53.397Z,40.73
2018-03-25T12:37:55.641Z,42.47
2018-03-25T12:42:56.639Z,41.77
2018-03-25T12:47:57.581Z,41.43
2018-03-25T12:52:58.525Z,37.00
2018-03-25T12:57:59.482Z,39.90
2018-03-25T13:03:00.483Z,34.67
2018-03-25T13:08:01.483Z,37.10
2018-03-25T13:13:02.467Z,39.63
2018-03-25T13:18:03.458Z,36.30
2018-03-25T13:23:04.457Z,42.27
2018-03-25T13:28:05.904Z,37.50
2018-03-25T13:33:06.844Z,39.63
2018-03-25T13:43:42.765Z,41.73
2018-03-25T13:48:43.749Z,37.53
2018-03-25T13:53:44.712Z,42.50
2018-03-25T13:58:45.684Z,38.87
2018-03-25T14:03:46.649Z,36.63
2018-03-25T14:08:47.933Z,36.27
2018-03-25T14:13:49.200Z,40.83
2018-03-25T14:18:50.191Z,39.27
2018-03-25T14:23:51.161Z,39.77
2018-03-25T14:28:52.198Z,41.07
2018-03-25T14:33:53.159Z,44.80
2018-03-25T14:38:54.118Z,47.67
2018-03-25T14:43:55.081Z,40.03
2018-03-25T14:48:56.044Z,36.97
2018-03-25T14:53:57.020Z,40.53
2018-03-25T14:58:57.968Z,37.93
2018-03-25T15:03:58.912Z,42.53
2018-03-25T15:09:00.227Z,39.87
2018-03-25T15:14:01.518Z,35.70
2018-03-25T15:19:02.512Z,35.83
2018-03-25T15:24:03.530Z,34.80
2018-03-25T15:29:04.521Z,40.60
2018-03-25T15:34:05.958Z,40.10
2018-03-25T15:39:06.912Z,40.60
2018-03-25T15:44:07.923Z,40.87
2018-03-25T15:49:08.925Z,39.00
2018-03-25T15:54:09.882Z,42.47
2018-03-25T15:59:10.883Z,38.33
2018-03-25T16:04:11.888Z,42.40
2018-03-25T16:09:12.872Z,42.23
2018-03-25T16:14:13.834Z,44.50
2018-03-25T16:19:15.077Z,39.43
2018-03-25T16:24:16.038Z,42.30
2018-03-25T16:29:17.085Z,40.77
2018-03-25T16:34:18.113Z,37.40
2018-03-25T16:39:19.135Z,43.40
2018-03-25T16:44:20.125Z,40.50
2018-03-25T16:49:21.103Z,45.37
2018-03-25T16:54:22.078Z,47.53
2018-03-25T16:59:23.093Z,48.90
2018-03-25T17:04:24.071Z,41.53
2018-03-25T17:09:25.062Z,44.43
2018-03-25T17:14:26.068Z,42.47
2018-03-25T17:19:27.033Z,53.43
2018-03-25T17:24:27.984Z,47.60
2018-03-25T17:29:29.022Z,53.70
2018-03-25T17:34:30.003Z,47.50
2018-03-25T17:39:30.980Z,56.50
2018-03-25T17:44:32.011Z,52.60
2018-03-25T18:00:33.938Z,63.80
2018-03-25T18:05:34.909Z,66.57
2018-03-25T18:10:35.914Z,55.53
2018-03-25T18:15:36.899Z,63.00
2018-03-25T18:20:37.874Z,68.17
2018-03-25T18:25:38.813Z,72.50
2018-03-25T18:30:39.835Z,67.60
2018-03-25T18:35:40.811Z,72.73
2018-03-25T18:40:41.785Z,70.43
2018-03-25T18:45:42.757Z,78.10
2018-03-25T18:50:43.777Z,75.07
2018-03-25T18:55:44.809Z,76.03
2018-03-25T19:00:45.842Z,82.80
2018-03-25T19:05:46.865Z,79.50
2018-03-25T19:10:47.869Z,83.20
2018-03-25T19:15:48.924Z,89.67
2018-03-25T19:20:50.032Z,86.90
2018-03-25T19:25:51.126Z,98.53
2018-03-25T19:30:53.092Z,88.43
2018-03-25T19:35:54.089Z,95.47
2018-03-25T19:40:55.080Z,85.47
2018-03-25T19:45:56.058Z,94.67
2018-03-25T19:50:57.045Z,100.20
2018-03-25T19:55:58.043Z,98.20
2018-03-25T20:00:59.103Z,103.10
2018-03-25T20:06:00.108Z,98.77
2018-03-25T20:11:01.137Z,99.60
2018-03-25T20:16:02.096Z,102.87
2018-03-25T20:21:03.113Z,88.80
2018-03-25T20:26:04.104Z,90.77
2018-03-25T20:31:05.073Z,86.47
2018-03-25T20:36:06.449Z,81.60
2018-03-25T22:04:49.116Z,102.20
2018-03-25T22:09:50.100Z,109.77
2018-03-25T22:14:51.064Z,98.30
2018-03-25T22:19:52.029Z,102.67
2018-03-25T22:24:52.961Z,122.30
2018-03-25T22:29:54.377Z,118.00
2018-03-25T22:34:55.304Z,113.23
2018-03-25T22:39:57.228Z,121.10
2018-03-25T22:44:58.184Z,120.87
2018-03-25T22:49:59.232Z,125.90
2018-03-25T22:55:00.477Z,122.50
2018-03-25T23:00:01.765Z,160.90
2018-03-25T23:05:03.248Z,129.10
2018-03-25T23:10:04.264Z,123.33
2018-03-25T23:15:05.256Z,132.23
2018-03-25T23:20:06.432Z,110.93
2018-03-25T23:25:07.691Z,125.10
2018-03-25T23:30:08.939Z,109.43
2018-03-25T23:35:10.206Z,105.27
2018-03-25T23:40:11.135Z,111.70
2018-03-25T23:45:12.078Z,108.00
2018-03-25T23:50:13.026Z,113.80
2018-03-25T23:55:13.949Z,121.10
